Point Pleasant Beach, NJ (08742)

1:02 PM EDT on June 23, 2017 (GMT -0400)
Jersey Shore Wx Center | | Change Station

Elev 13 ft 40.09 °N, 74.05 °W | Updated 21 seconds ago

Overcast
Overcast
79.6 °F
Feels Like 83 °F
N
4.0
Wind Variable Wind from WSW
Gusts 14.0 mph

Today
High -- | Low -- °F
--% Chance of Precip.
Yesterday
High -- | Low -- °F
Precip. -- in
Pressure 29.78 in
Visibility 10.0 miles
Clouds Mostly Cloudy 2200 ft
Overcast 2900 ft
Heat Index 83 °F
Dew Point 73 °F
Humidity 80%
Rainfall 0.00 in
Snow Depth Not available.
5:27 AM 8:29 PM
Waning Crescent, 0% visible
METAR KBLM 231656Z AUTO 22012G19KT 10SM BKN022 OVC029 26/21 A2977 RMK AO2 SLP084 T02560211
Pressure 29.78 in
Visibility 10.0 miles
Clouds Mostly Cloudy 2200 ft
Overcast 2900 ft
Heat Index 83 °F
Dew Point 73 °F
Humidity 80%
Rainfall 0.00 in
Snow Depth Not available.
5:27 AM 8:29 PM
Waning Crescent, 0% visible
METAR KBLM 231656Z AUTO 22012G19KT 10SM BKN022 OVC029 26/21 A2977 RMK AO2 SLP084 T02560211

Get Severe Weather Alerts

Thanks for signing up!

Be on the lookout for a verification email in your inbox.

You'll start receiving the daily forecast at 6 AM.

×

10-Day Weather Forecast

Almanac

Astronomy

Jun. 23, 2017 Rise Set
Actual Time
Civil Twilight
Nautical Twilight
Astronomical Twilight
Moon
Length of Visible Light
Length of Day
Tomorrow will be .
, % of the Moon is Illuminated

Today's Extremes

State Highs State Lows

Community

WunderPhotos

Category 6

Welcome to Category 6. This is the collective home for Weather Underground's featured writeups by Dr. Jeff Masters (right), Bob Henson (left), Chris Burt, and other regular contributors.

Nearby

Air Quality

  Air Quality AQ Index Pollutant
Not available.

Snow Depth

Station Depth Elevation

Earthquake Activity

City Distance Mag. Time & Date
Minimum magnitude displayed is 2.5.

Coastal Water Temperatures

Place Temperature

Stations

Nearby Weather Stations

Station Location Temp. Windchill Dew Point Humidity Wind Precip. Elev Updated Type
                   

Watches & Warnings

There are currently no watches in effect.